createdAt,value
2023-04-02T00:01:19.586Z,95.30
2023-04-02T00:03:54.058Z,94.90
2023-04-02T00:06:33.347Z,94.20
2023-04-02T00:09:22.115Z,93.40
2023-04-02T00:11:54.975Z,92.90
2023-04-02T00:14:33.721Z,92.90
2023-04-02T00:17:06.067Z,92.90
2023-04-02T00:19:45.403Z,93.50
2023-04-02T00:22:26.764Z,93.00
2023-04-02T00:24:56.603Z,92.90
2023-04-02T00:27:23.848Z,93.70
2023-04-02T00:29:53.812Z,93.50
2023-04-02T00:32:26.886Z,93.50
2023-04-02T00:34:55.282Z,93.30
2023-04-02T00:37:28.309Z,94.30
2023-04-02T00:40:06.994Z,95.60
2023-04-02T00:42:36.193Z,96.00
2023-04-02T00:45:04.618Z,96.40
2023-04-02T00:47:38.129Z,96.90
2023-04-02T00:50:29.331Z,97.00
2023-04-02T00:52:58.224Z,97.20
2023-04-02T00:55:36.888Z,97.40
2023-04-02T00:58:05.419Z,97.60
2023-04-02T01:00:35.333Z,97.50
2023-04-02T01:03:17.644Z,97.10
2023-04-02T01:05:57.586Z,97.10
2023-04-02T01:08:29.956Z,96.90
2023-04-02T01:11:29.631Z,97.00
2023-04-02T01:14:20.164Z,97.20
2023-04-02T01:17:26.765Z,97.10
2023-04-02T01:20:18.257Z,97.30
2023-04-02T01:23:00.406Z,97.50
2023-04-02T01:25:38.463Z,98.00
2023-04-02T01:28:45.754Z,98.10
2023-04-02T01:31:15.400Z,98.30
2023-04-02T01:33:42.874Z,98.30
2023-04-02T01:36:42.118Z,98.00
2023-04-02T01:39:30.411Z,98.00
2023-04-02T01:42:05.550Z,98.10
2023-04-02T01:44:50.270Z,98.10
2023-04-02T01:47:20.247Z,98.10
2023-04-02T01:49:48.242Z,97.80
2023-04-02T01:52:26.452Z,97.90
2023-04-02T01:54:54.829Z,97.50
2023-04-02T01:57:22.106Z,97.60
2023-04-02T01:59:49.380Z,97.40
2023-04-02T02:02:16.722Z,97.60
2023-04-02T02:04:44.354Z,98.20
2023-04-02T02:07:20.931Z,98.70
2023-04-02T02:09:49.345Z,98.90
2023-04-02T02:12:16.866Z,99.10
2023-04-02T02:14:49.634Z,99.00
2023-04-02T02:17:20.179Z,98.90
2023-04-02T02:19:55.594Z,99.10
2023-04-02T02:22:34.024Z,99.10
2023-04-02T02:25:05.710Z,98.50
2023-04-02T02:27:51.055Z,98.80
2023-04-02T02:30:27.728Z,98.30
2023-04-02T02:32:59.321Z,98.50
2023-04-02T02:35:37.458Z,98.70
2023-04-02T02:38:13.494Z,98.60
2023-04-02T02:40:46.539Z,98.50
2023-04-02T02:43:17.066Z,98.40
2023-04-02T02:45:47.582Z,98.50
2023-04-02T02:48:19.661Z,98.60
2023-04-02T02:50:47.589Z,98.50
2023-04-02T02:53:25.163Z,98.70
2023-04-02T02:55:59.736Z,99.10
2023-04-02T02:58:32.933Z,99.10
2023-04-02T03:01:00.786Z,99.10
2023-04-02T03:03:32.813Z,99.00
2023-04-02T03:06:10.756Z,99.60
2023-04-02T03:08:46.820Z,99.70
2023-04-02T03:11:25.054Z,99.90
2023-04-02T03:13:56.270Z,99.90
2023-04-02T03:16:33.296Z,99.90
2023-04-02T03:19:28.770Z,99.90
2023-04-02T03:22:37.719Z,99.90
2023-04-02T03:25:15.349Z,99.90
2023-04-02T03:27:46.981Z,99.90
2023-04-02T03:30:37.336Z,99.90
2023-04-02T03:33:12.020Z,99.70
2023-04-02T03:35:55.924Z,99.40
2023-04-02T03:38:34.418Z,99.50
2023-04-02T03:41:27.429Z,99.90
2023-04-02T03:43:58.939Z,99.40
2023-04-02T03:46:38.380Z,99.30
2023-04-02T03:49:25.994Z,99.30
2023-04-02T03:52:04.099Z,99.50
2023-04-02T03:54:32.068Z,99.50
2023-04-02T03:56:59.980Z,99.70
2023-04-02T03:59:59.757Z,99.90
2023-04-02T04:02:27.035Z,99.90
2023-04-02T04:04:56.195Z,99.90
2023-04-02T04:07:38.911Z,99.90
2023-04-02T04:10:09.077Z,99.90
2023-04-02T04:12:46.722Z,99.90
2023-04-02T04:15:28.923Z,99.90
2023-04-02T04:18:19.618Z,99.90
2023-04-02T04:20:57.836Z,99.90
2023-04-02T04:23:30.822Z,99.90
2023-04-02T04:26:19.884Z,99.90
2023-04-02T04:28:58.819Z,99.90
2023-04-02T04:31:50.378Z,99.90
2023-04-02T04:34:42.515Z,99.90
2023-04-02T04:37:22.156Z,99.90
2023-04-02T04:40:00.585Z,99.90
2023-04-02T04:42:32.994Z,99.90
2023-04-02T04:45:12.433Z,99.90
2023-04-02T04:47:48.881Z,99.90
2023-04-02T04:50:37.400Z,99.90
2023-04-02T04:53:26.617Z,99.90
2023-04-02T04:56:15.965Z,99.90
2023-04-02T04:59:14.684Z,99.90
2023-04-02T05:01:45.506Z,99.90
2023-04-02T05:04:21.065Z,99.90
2023-04-02T05:07:01.259Z,99.90
2023-04-02T05:09:54.313Z,99.90
2023-04-02T05:12:39.886Z,99.90
2023-04-02T05:15:27.415Z,99.90
2023-04-02T05:18:19.611Z,99.90
2023-04-02T05:20:56.704Z,99.90
2023-04-02T05:23:43.182Z,99.90
2023-04-02T05:26:22.842Z,99.90
2023-04-02T05:29:06.069Z,99.90
2023-04-02T05:31:48.680Z,99.90
2023-04-02T05:34:26.779Z,99.90
2023-04-02T05:36:55.925Z,99.90
2023-04-02T05:39:25.384Z,99.90
2023-04-02T05:42:08.470Z,99.90
2023-04-02T05:44:42.109Z,99.90
2023-04-02T05:48:02.267Z,99.90
2023-04-02T05:50:40.713Z,99.90
2023-04-02T05:53:14.167Z,99.90
2023-04-02T05:56:05.908Z,99.90
2023-04-02T05:59:02.926Z,99.90
2023-04-02T06:01:39.426Z,99.60
2023-04-02T06:04:21.859Z,99.50
2023-04-02T06:07:34.831Z,98.80
2023-04-02T06:10:11.146Z,98.70
2023-04-02T06:12:45.981Z,98.40
2023-04-02T06:15:19.369Z,98.40
2023-04-02T06:17:59.604Z,98.60
2023-04-02T06:20:28.201Z,98.60
2023-04-02T06:23:07.440Z,98.60
2023-04-02T06:25:45.189Z,98.90
2023-04-02T06:28:20.177Z,99.00
2023-04-02T06:30:49.102Z,99.30
2023-04-02T06:33:16.419Z,99.50
2023-04-02T06:35:46.966Z,99.60
2023-04-02T06:38:21.842Z,99.50
2023-04-02T06:41:02.445Z,99.30
2023-04-02T06:43:41.233Z,99.20
2023-04-02T06:46:24.796Z,99.00
2023-04-02T06:48:57.173Z,98.80
2023-04-02T06:51:26.459Z,98.80
2023-04-02T06:53:53.671Z,98.50
2023-04-02T06:56:45.348Z,98.50
2023-04-02T06:59:13.277Z,98.40
2023-04-02T07:01:54.604Z,98.70
2023-04-02T07:04:22.564Z,98.90
2023-04-02T07:06:49.817Z,99.50
2023-04-02T07:09:17.413Z,99.50
2023-04-02T07:11:44.628Z,98.90
2023-04-02T07:14:14.790Z,98.40
2023-04-02T07:16:43.340Z,98.20
2023-04-02T07:19:22.145Z,98.20
2023-04-02T07:25:27.508Z,98.20
2023-04-02T07:27:55.387Z,98.40
2023-04-02T07:30:22.982Z,98.40
2023-04-02T07:32:50.120Z,98.70
2023-04-02T07:35:17.296Z,98.60
2023-04-02T07:37:44.535Z,98.70
2023-04-02T07:40:22.186Z,98.70
2023-04-02T07:42:50.003Z,99.00
2023-04-02T07:45:17.244Z,99.00
2023-04-02T07:47:45.803Z,99.10
2023-04-02T07:50:13.714Z,99.10
2023-04-02T07:52:45.097Z,99.50
2023-04-02T07:55:14.202Z,99.30
2023-04-02T07:57:49.713Z,99.10
2023-04-02T08:00:18.986Z,99.10
2023-04-02T08:02:46.157Z,99.50
2023-04-02T08:05:13.883Z,99.50
2023-04-02T08:07:41.882Z,99.30
2023-04-02T08:10:11.115Z,99.40
2023-04-02T08:12:39.696Z,99.10
2023-04-02T08:15:07.682Z,99.00
2023-04-02T08:17:34.880Z,98.90
2023-04-02T08:20:02.090Z,98.80
2023-04-02T08:22:29.894Z,98.40
2023-04-02T08:24:58.219Z,98.00
2023-04-02T08:27:26.127Z,97.80
2023-04-02T08:29:54.680Z,96.90
2023-04-02T08:32:23.345Z,97.60
2023-04-02T08:34:50.439Z,97.00
2023-04-02T08:37:17.640Z,96.90
2023-04-02T08:39:44.791Z,96.80
2023-04-02T08:42:34.826Z,96.80
2023-04-02T08:45:23.515Z,96.70
2023-04-02T08:47:53.780Z,96.90
2023-04-02T08:50:37.638Z,96.40
2023-04-02T08:53:12.810Z,96.50
2023-04-02T08:55:53.238Z,97.20
2023-04-02T08:58:43.271Z,96.60
2023-04-02T09:01:45.246Z,96.00
2023-04-02T09:04:22.388Z,95.60
2023-04-02T09:06:52.747Z,95.20
2023-04-02T09:09:22.666Z,95.30
2023-04-02T09:12:04.558Z,94.70
2023-04-02T09:14:31.705Z,94.60
2023-04-02T09:17:09.199Z,94.50
2023-04-02T09:19:40.648Z,94.60
2023-04-02T09:22:57.718Z,94.60
2023-04-02T09:25:30.077Z,94.70
2023-04-02T09:28:01.018Z,94.90
2023-04-02T09:30:41.749Z,94.80
2023-04-02T09:33:09.586Z,94.10
2023-04-02T09:35:50.419Z,93.60
2023-04-02T09:38:23.569Z,93.90
2023-04-02T09:40:55.317Z,93.60
2023-04-02T09:43:32.479Z,93.50
2023-04-02T09:46:22.926Z,93.20
2023-04-02T09:49:01.354Z,93.20
2023-04-02T09:51:34.831Z,93.80
2023-04-02T09:54:04.990Z,92.90
2023-04-02T09:56:38.543Z,92.30
2023-04-02T09:59:23.092Z,91.90
2023-04-02T10:01:56.179Z,91.40
2023-04-02T10:04:35.064Z,91.90
2023-04-02T10:07:03.442Z,92.10
2023-04-02T10:09:36.685Z,93.00
2023-04-02T10:12:07.866Z,93.70
2023-04-02T10:14:40.616Z,94.10
2023-04-02T10:17:19.340Z,94.10
2023-04-02T10:19:52.665Z,94.90
2023-04-02T10:22:22.219Z,95.30
2023-04-02T10:24:50.291Z,95.40
2023-04-02T10:27:26.552Z,95.90
2023-04-02T10:30:08.755Z,96.70
2023-04-02T10:33:03.896Z,96.50
2023-04-02T10:36:06.588Z,94.10
2023-04-02T10:38:43.742Z,94.90
2023-04-02T10:41:31.768Z,94.80
2023-04-02T10:44:27.949Z,95.40
2023-04-02T10:47:08.588Z,97.10
2023-04-02T10:49:42.203Z,97.20
2023-04-02T10:52:23.443Z,96.50
2023-04-02T10:54:56.640Z,96.10
2023-04-02T10:57:26.998Z,95.30
2023-04-02T10:59:59.636Z,95.00
2023-04-02T11:02:39.684Z,94.00
2023-04-02T11:05:23.881Z,92.70
2023-04-02T11:08:20.157Z,91.20
2023-04-02T11:10:53.615Z,90.60
2023-04-02T11:13:28.708Z,90.10
2023-04-02T11:15:56.248Z,88.20
2023-04-02T11:18:38.958Z,85.20
2023-04-02T11:21:26.090Z,87.20
2023-04-02T11:24:01.484Z,88.80
2023-04-02T11:26:30.062Z,90.20
2023-04-02T11:29:19.333Z,89.00
2023-04-02T11:31:47.248Z,86.90
2023-04-02T11:35:06.494Z,87.30
2023-04-02T11:37:45.206Z,86.10
2023-04-02T11:40:12.446Z,85.70
2023-04-02T11:42:43.635Z,83.10
2023-04-02T11:45:31.161Z,86.60
2023-04-02T11:48:03.994Z,90.10
2023-04-02T11:50:39.951Z,89.50
2023-04-02T11:53:13.515Z,89.60
2023-04-02T11:55:47.512Z,88.40
2023-04-02T11:58:27.874Z,88.30
2023-04-02T12:01:18.621Z,87.70
2023-04-02T12:04:07.328Z,88.30
2023-04-02T12:07:13.094Z,88.80
2023-04-02T12:09:55.741Z,85.60
2023-04-02T12:12:40.757Z,87.70
2023-04-02T12:15:34.597Z,83.80
2023-04-02T12:18:15.405Z,84.90
2023-04-02T12:24:24.862Z,84.80
2023-04-02T12:27:22.834Z,83.40
2023-04-02T12:29:51.875Z,81.10
2023-04-02T12:32:30.032Z,81.50
2023-04-02T12:35:04.586Z,80.10
2023-04-02T12:37:32.273Z,82.50
2023-04-02T12:40:02.560Z,82.00
2023-04-02T12:42:35.374Z,78.40
2023-04-02T12:45:04.414Z,78.20
2023-04-02T12:47:33.122Z,77.90
2023-04-02T12:50:02.295Z,76.00
2023-04-02T12:52:29.901Z,77.20
2023-04-02T12:55:00.162Z,76.10
2023-04-02T12:57:27.206Z,75.10
2023-04-02T13:00:54.178Z,76.70
2023-04-02T13:03:22.449Z,74.90
2023-04-02T13:05:53.907Z,74.10
2023-04-02T13:08:37.717Z,75.70
2023-04-02T13:11:06.535Z,73.80
2023-04-02T13:13:39.832Z,77.20
2023-04-02T13:16:15.808Z,75.20
2023-04-02T13:18:44.985Z,74.20
2023-04-02T13:21:15.152Z,76.10
2023-04-02T13:23:43.325Z,74.70
2023-04-02T13:26:27.528Z,74.70
2023-04-02T13:29:04.268Z,73.90
2023-04-02T13:31:33.108Z,76.30
2023-04-02T13:34:00.650Z,76.20
2023-04-02T13:36:29.679Z,73.70
2023-04-02T13:38:57.459Z,73.40
2023-04-02T13:41:33.973Z,71.00
2023-04-02T13:44:03.422Z,71.80
2023-04-02T13:46:33.040Z,70.60
2023-04-02T13:49:00.770Z,70.70
2023-04-02T13:51:49.359Z,70.50
2023-04-02T13:54:27.919Z,72.20
2023-04-02T13:56:57.245Z,71.70
2023-04-02T13:59:25.182Z,69.00
2023-04-02T14:01:56.628Z,76.20
2023-04-02T14:04:32.433Z,72.40
2023-04-02T14:07:17.810Z,72.00
2023-04-02T14:10:19.726Z,71.90
2023-04-02T14:13:08.487Z,70.50
2023-04-02T14:16:14.803Z,68.70
2023-04-02T14:19:22.941Z,70.10
2023-04-02T14:22:14.813Z,70.60
2023-04-02T14:25:00.679Z,70.30
2023-04-02T14:27:37.931Z,69.40
2023-04-02T14:30:19.038Z,68.80
2023-04-02T14:33:07.660Z,69.50
2023-04-02T14:35:38.711Z,68.80
2023-04-02T14:38:27.080Z,69.80
2023-04-02T14:41:29.866Z,70.90
2023-04-02T14:44:04.243Z,69.60
2023-04-02T14:46:34.838Z,68.00
2023-04-02T14:49:24.432Z,66.30
2023-04-02T14:52:19.641Z,68.50
2023-04-02T14:55:21.966Z,66.90
2023-04-02T14:57:53.826Z,65.70
2023-04-02T15:00:38.051Z,65.30
2023-04-02T15:03:25.202Z,65.70
2023-04-02T15:06:05.498Z,65.60
2023-04-02T15:08:58.505Z,68.00
2023-04-02T15:11:54.227Z,68.00
2023-04-02T15:14:31.922Z,67.00
2023-04-02T15:16:59.328Z,67.20
2023-04-02T15:19:26.490Z,67.40
2023-04-02T15:22:12.156Z,68.40
2023-04-02T15:24:54.156Z,69.50
2023-04-02T15:27:43.841Z,68.40
2023-04-02T15:30:35.643Z,67.70
2023-04-02T15:33:30.203Z,67.50
2023-04-02T15:36:23.687Z,70.30
2023-04-02T15:39:01.408Z,67.70
2023-04-02T15:41:33.943Z,67.70
2023-04-02T15:44:19.068Z,69.20
2023-04-02T15:46:56.405Z,70.40
2023-04-02T15:49:42.294Z,69.80
